sensor_id;sensor_type;location;lat;lon;timestamp;temperature;humidity
9383;DHT22;4731;49.708;10.816;2023-11-21T00:00:21;7.60;99.90
9383;DHT22;4731;49.708;10.816;2023-11-21T00:02:49;7.70;99.90
9383;DHT22;4731;49.708;10.816;2023-11-21T00:05:16;7.70;99.90
9383;DHT22;4731;49.708;10.816;2023-11-21T00:07:43;7.70;99.90
9383;DHT22;4731;49.708;10.816;2023-11-21T00:10:11;7.70;99.90
9383;DHT22;4731;49.708;10.816;2023-11-21T00:12:39;7.70;99.90
9383;DHT22;4731;49.708;10.816;2023-11-21T00:15:08;7.70;99.90
9383;DHT22;4731;49.708;10.816;2023-11-21T00:17:36;7.70;99.90
9383;DHT22;4731;49.708;10.816;2023-11-21T00:20:05;7.60;99.90
9383;DHT22;4731;49.708;10.816;2023-11-21T00:22:33;7.60;99.90
9383;DHT22;4731;49.708;10.816;2023-11-21T00:24:59;7.60;99.90
9383;DHT22;4731;49.708;10.816;2023-11-21T00:27:26;7.60;99.90
9383;DHT22;4731;49.708;10.816;2023-11-21T00:29:53;7.60;99.90
9383;DHT22;4731;49.708;10.816;2023-11-21T00:32:20;7.60;99.90
9383;DHT22;4731;49.708;10.816;2023-11-21T00:34:46;8.00;99.90
9383;DHT22;4731;49.708;10.816;2023-11-21T00:37:14;7.70;99.90
9383;DHT22;4731;49.708;10.816;2023-11-21T00:39:41;7.70;99.90
9383;DHT22;4731;49.708;10.816;2023-11-21T00:42:08;7.70;99.90
9383;DHT22;4731;49.708;10.816;2023-11-21T00:44:37;7.70;99.90
9383;DHT22;4731;49.708;10.816;2023-11-21T00:47:04;7.70;99.90
9383;DHT22;4731;49.708;10.816;2023-11-21T00:49:31;7.70;99.90
9383;DHT22;4731;49.708;10.816;2023-11-21T00:51:58;7.70;99.90
9383;DHT22;4731;49.708;10.816;2023-11-21T00:54:27;7.80;99.90
9383;DHT22;4731;49.708;10.816;2023-11-21T00:56:53;7.80;99.90
9383;DHT22;4731;49.708;10.816;2023-11-21T00:59:20;7.90;99.90
9383;DHT22;4731;49.708;10.816;2023-11-21T01:01:48;10.30;99.90
9383;DHT22;4731;49.708;10.816;2023-11-21T01:04:15;7.80;99.90
9383;DHT22;4731;49.708;10.816;2023-11-21T01:06:42;7.80;99.90
9383;DHT22;4731;49.708;10.816;2023-11-21T01:09:08;7.70;99.90
9383;DHT22;4731;49.708;10.816;2023-11-21T01:11:37;7.70;99.90
9383;DHT22;4731;49.708;10.816;2023-11-21T01:14:04;7.70;99.90
9383;DHT22;4731;49.708;10.816;2023-11-21T01:16:32;7.70;99.90
9383;DHT22;4731;49.708;10.816;2023-11-21T01:18:58;7.70;99.90
9383;DHT22;4731;49.708;10.816;2023-11-21T01:21:25;7.70;99.90
9383;DHT22;4731;49.708;10.816;2023-11-21T01:23:53;9.30;99.90
9383;DHT22;4731;49.708;10.816;2023-11-21T01:26:20;9.50;99.90
9383;DHT22;4731;49.708;10.816;2023-11-21T01:28:48;7.80;99.90
9383;DHT22;4731;49.708;10.816;2023-11-21T01:31:15;7.80;99.90
9383;DHT22;4731;49.708;10.816;2023-11-21T01:33:42;9.80;99.90
9383;DHT22;4731;49.708;10.816;2023-11-21T01:36:10;7.80;99.90
9383;DHT22;4731;49.708;10.816;2023-11-21T01:38:36;7.80;99.90
9383;DHT22;4731;49.708;10.816;2023-11-21T01:41:04;7.90;99.90
9383;DHT22;4731;49.708;10.816;2023-11-21T01:43:31;7.90;99.90
9383;DHT22;4731;49.708;10.816;2023-11-21T01:46:00;7.90;99.90
9383;DHT22;4731;49.708;10.816;2023-11-21T01:48:27;7.80;99.90
9383;DHT22;4731;49.708;10.816;2023-11-21T01:50:54;7.70;99.90
9383;DHT22;4731;49.708;10.816;2023-11-21T01:53:21;7.70;99.90
9383;DHT22;4731;49.708;10.816;2023-11-21T01:55:48;7.60;99.90
9383;DHT22;4731;49.708;10.816;2023-11-21T01:58:16;7.50;99.90
9383;DHT22;4731;49.708;10.816;2023-11-21T02:00:43;7.60;99.90
9383;DHT22;4731;49.708;10.816;2023-11-21T02:03:11;7.70;99.90
9383;DHT22;4731;49.708;10.816;2023-11-21T02:05:38;7.80;99.90
9383;DHT22;4731;49.708;10.816;2023-11-21T02:08:04;7.80;99.90
9383;DHT22;4731;49.708;10.816;2023-11-21T02:10:32;7.80;99.90
9383;DHT22;4731;49.708;10.816;2023-11-21T02:12:59;7.90;99.90
9383;DHT22;4731;49.708;10.816;2023-11-21T02:15:28;7.90;99.90
9383;DHT22;4731;49.708;10.816;2023-11-21T02:17:55;8.40;99.90
9383;DHT22;4731;49.708;10.816;2023-11-21T02:20:25;7.80;99.90
9383;DHT22;4731;49.708;10.816;2023-11-21T02:22:56;7.90;99.90
9383;DHT22;4731;49.708;10.816;2023-11-21T02:25:24;7.80;99.90
9383;DHT22;4731;49.708;10.816;2023-11-21T02:27:51;7.80;99.90
9383;DHT22;4731;49.708;10.816;2023-11-21T02:30:20;7.90;99.90
9383;DHT22;4731;49.708;10.816;2023-11-21T02:32:47;7.90;99.90
9383;DHT22;4731;49.708;10.816;2023-11-21T02:35:14;7.80;99.90
9383;DHT22;4731;49.708;10.816;2023-11-21T02:37:41;7.80;99.90
9383;DHT22;4731;49.708;10.816;2023-11-21T02:40:10;7.80;99.90
9383;DHT22;4731;49.708;10.816;2023-11-21T02:42:39;7.90;99.90
9383;DHT22;4731;49.708;10.816;2023-11-21T02:45:07;7.90;99.90
9383;DHT22;4731;49.708;10.816;2023-11-21T02:47:34;7.90;99.90
9383;DHT22;4731;49.708;10.816;2023-11-21T02:50:01;8.00;99.90
9383;DHT22;4731;49.708;10.816;2023-11-21T02:52:27;8.00;99.90
9383;DHT22;4731;49.708;10.816;2023-11-21T02:54:54;8.00;99.90
9383;DHT22;4731;49.708;10.816;2023-11-21T02:57:22;8.00;99.90
9383;DHT22;4731;49.708;10.816;2023-11-21T02:59:49;7.90;99.90
9383;DHT22;4731;49.708;10.816;2023-11-21T03:02:16;7.80;99.90
9383;DHT22;4731;49.708;10.816;2023-11-21T03:04:43;7.90;99.90
9383;DHT22;4731;49.708;10.816;2023-11-21T03:07:09;7.90;99.90
9383;DHT22;4731;49.708;10.816;2023-11-21T03:09:36;7.90;99.90
9383;DHT22;4731;49.708;10.816;2023-11-21T03:12:04;7.90;99.90
9383;DHT22;4731;49.708;10.816;2023-11-21T03:14:32;7.90;99.90
9383;DHT22;4731;49.708;10.816;2023-11-21T03:16:59;7.90;99.90
9383;DHT22;4731;49.708;10.816;2023-11-21T03:19:25;9.30;99.90
9383;DHT22;4731;49.708;10.816;2023-11-21T03:21:52;7.80;99.90
9383;DHT22;4731;49.708;10.816;2023-11-21T03:24:19;7.80;99.90
9383;DHT22;4731;49.708;10.816;2023-11-21T03:26:48;10.30;99.90
9383;DHT22;4731;49.708;10.816;2023-11-21T03:29:15;7.80;99.90
9383;DHT22;4731;49.708;10.816;2023-11-21T03:31:43;7.80;99.90
9383;DHT22;4731;49.708;10.816;2023-11-21T03:34:15;7.80;99.90
9383;DHT22;4731;49.708;10.816;2023-11-21T03:36:42;9.20;99.90
9383;DHT22;4731;49.708;10.816;2023-11-21T03:39:09;9.70;99.90
9383;DHT22;4731;49.708;10.816;2023-11-21T03:41:36;7.90;99.90
9383;DHT22;4731;49.708;10.816;2023-11-21T03:44:03;7.90;99.90
9383;DHT22;4731;49.708;10.816;2023-11-21T03:46:30;7.90;99.90
9383;DHT22;4731;49.708;10.816;2023-11-21T03:48:58;7.80;99.90
9383;DHT22;4731;49.708;10.816;2023-11-21T03:51:25;7.80;99.90
9383;DHT22;4731;49.708;10.816;2023-11-21T03:53:51;7.80;99.90
9383;DHT22;4731;49.708;10.816;2023-11-21T03:56:19;7.90;99.90
9383;DHT22;4731;49.708;10.816;2023-11-21T03:58:47;7.80;99.90
9383;DHT22;4731;49.708;10.816;2023-11-21T04:01:19;7.70;99.90
9383;DHT22;4731;49.708;10.816;2023-11-21T04:03:47;7.60;99.90
9383;DHT22;4731;49.708;10.816;2023-11-21T04:06:15;7.60;99.90
9383;DHT22;4731;49.708;10.816;2023-11-21T04:08:42;7.70;99.90
9383;DHT22;4731;49.708;10.816;2023-11-21T04:11:09;7.70;99.90
9383;DHT22;4731;49.708;10.816;2023-11-21T04:13:37;7.70;99.90
9383;DHT22;4731;49.708;10.816;2023-11-21T04:16:05;7.70;99.90
9383;DHT22;4731;49.708;10.816;2023-11-21T04:18:32;7.70;99.90
9383;DHT22;4731;49.708;10.816;2023-11-21T04:20:59;7.70;99.90
9383;DHT22;4731;49.708;10.816;2023-11-21T04:23:29;7.80;99.90
9383;DHT22;4731;49.708;10.816;2023-11-21T04:25:55;9.60;99.90
9383;DHT22;4731;49.708;10.816;2023-11-21T04:28:22;7.70;99.90
9383;DHT22;4731;49.708;10.816;2023-11-21T04:30:49;7.60;99.90
9383;DHT22;4731;49.708;10.816;2023-11-21T04:33:16;7.60;99.90
9383;DHT22;4731;49.708;10.816;2023-11-21T04:35:43;7.50;99.90
9383;DHT22;4731;49.708;10.816;2023-11-21T04:38:09;9.20;99.90
9383;DHT22;4731;49.708;10.816;2023-11-21T04:40:37;5.00;99.90
9383;DHT22;4731;49.708;10.816;2023-11-21T04:43:07;7.30;99.90
9383;DHT22;4731;49.708;10.816;2023-11-21T04:45:36;7.40;99.90
9383;DHT22;4731;49.708;10.816;2023-11-21T04:48:03;7.30;99.90
9383;DHT22;4731;49.708;10.816;2023-11-21T04:50:30;7.30;99.90
9383;DHT22;4731;49.708;10.816;2023-11-21T04:52:57;7.30;99.90
9383;DHT22;4731;49.708;10.816;2023-11-21T04:55:24;7.40;99.90
9383;DHT22;4731;49.708;10.816;2023-11-21T04:57:54;7.40;99.90
9383;DHT22;4731;49.708;10.816;2023-11-21T05:00:21;7.50;99.90
9383;DHT22;4731;49.708;10.816;2023-11-21T05:02:48;7.60;99.90
9383;DHT22;4731;49.708;10.816;2023-11-21T05:05:15;7.60;99.90
9383;DHT22;4731;49.708;10.816;2023-11-21T05:07:41;7.70;99.90
9383;DHT22;4731;49.708;10.816;2023-11-21T05:10:10;7.70;99.90
9383;DHT22;4731;49.708;10.816;2023-11-21T05:12:37;7.70;99.90
9383;DHT22;4731;49.708;10.816;2023-11-21T05:15:07;7.70;99.90
9383;DHT22;4731;49.708;10.816;2023-11-21T05:17:35;7.70;99.90
9383;DHT22;4731;49.708;10.816;2023-11-21T05:20:02;7.60;99.90
9383;DHT22;4731;49.708;10.816;2023-11-21T05:22:33;7.50;99.90
9383;DHT22;4731;49.708;10.816;2023-11-21T05:25:00;7.50;99.90
9383;DHT22;4731;49.708;10.816;2023-11-21T05:27:28;7.50;99.90
9383;DHT22;4731;49.708;10.816;2023-11-21T05:29:55;8.00;99.90
9383;DHT22;4731;49.708;10.816;2023-11-21T05:32:23;7.60;99.90
9383;DHT22;4731;49.708;10.816;2023-11-21T05:34:50;7.50;99.90
9383;DHT22;4731;49.708;10.816;2023-11-21T05:37:17;7.60;99.90
9383;DHT22;4731;49.708;10.816;2023-11-21T05:39:44;8.70;99.90
9383;DHT22;4731;49.708;10.816;2023-11-21T05:42:11;7.60;99.90
9383;DHT22;4731;49.708;10.816;2023-11-21T05:44:40;7.60;99.90
9383;DHT22;4731;49.708;10.816;2023-11-21T05:47:07;7.40;99.90
9383;DHT22;4731;49.708;10.816;2023-11-21T05:49:35;8.50;99.90
9383;DHT22;4731;49.708;10.816;2023-11-21T05:52:02;7.40;99.90
9383;DHT22;4731;49.708;10.816;2023-11-21T05:54:30;7.30;99.90
9383;DHT22;4731;49.708;10.816;2023-11-21T05:56:58;7.40;99.90
9383;DHT22;4731;49.708;10.816;2023-11-21T05:59:24;7.30;99.90
9383;DHT22;4731;49.708;10.816;2023-11-21T06:01:51;7.30;99.90
9383;DHT22;4731;49.708;10.816;2023-11-21T06:04:19;7.40;99.90
9383;DHT22;4731;49.708;10.816;2023-11-21T06:06:51;7.20;99.90
9383;DHT22;4731;49.708;10.816;2023-11-21T06:09:17;7.20;99.90
9383;DHT22;4731;49.708;10.816;2023-11-21T06:11:44;7.20;99.90
9383;DHT22;4731;49.708;10.816;2023-11-21T06:14:11;7.40;99.90
9383;DHT22;4731;49.708;10.816;2023-11-21T06:16:37;9.70;99.90
9383;DHT22;4731;49.708;10.816;2023-11-21T06:19:05;8.90;99.90
9383;DHT22;4731;49.708;10.816;2023-11-21T06:21:32;7.50;99.90
9383;DHT22;4731;49.708;10.816;2023-11-21T06:24:00;7.50;99.90
9383;DHT22;4731;49.708;10.816;2023-11-21T06:26:27;7.40;99.90
9383;DHT22;4731;49.708;10.816;2023-11-21T06:28:54;7.30;99.90
9383;DHT22;4731;49.708;10.816;2023-11-21T06:31:22;7.30;99.90
9383;DHT22;4731;49.708;10.816;2023-11-21T06:33:49;7.30;99.90
9383;DHT22;4731;49.708;10.816;2023-11-21T06:36:17;7.30;99.90
9383;DHT22;4731;49.708;10.816;2023-11-21T06:38:44;8.90;99.90
9383;DHT22;4731;49.708;10.816;2023-11-21T06:41:12;7.50;99.90
9383;DHT22;4731;49.708;10.816;2023-11-21T06:43:40;7.50;99.90
9383;DHT22;4731;49.708;10.816;2023-11-21T06:46:10;7.60;99.90
9383;DHT22;4731;49.708;10.816;2023-11-21T06:48:40;8.00;99.90
9383;DHT22;4731;49.708;10.816;2023-11-21T06:51:07;10.30;99.90
9383;DHT22;4731;49.708;10.816;2023-11-21T06:53:33;7.70;99.90
9383;DHT22;4731;49.708;10.816;2023-11-21T06:56:00;7.70;99.90
9383;DHT22;4731;49.708;10.816;2023-11-21T06:58:28;7.70;99.90
9383;DHT22;4731;49.708;10.816;2023-11-21T07:00:55;7.80;99.90
9383;DHT22;4731;49.708;10.816;2023-11-21T07:03:23;7.80;99.90
9383;DHT22;4731;49.708;10.816;2023-11-21T07:05:51;9.90;99.90
9383;DHT22;4731;49.708;10.816;2023-11-21T07:08:17;7.70;99.90
9383;DHT22;4731;49.708;10.816;2023-11-21T07:10:44;7.80;99.90
9383;DHT22;4731;49.708;10.816;2023-11-21T07:13:12;7.80;99.90
9383;DHT22;4731;49.708;10.816;2023-11-21T07:15:40;7.90;99.90
9383;DHT22;4731;49.708;10.816;2023-11-21T07:18:07;7.90;99.90
9383;DHT22;4731;49.708;10.816;2023-11-21T07:20:34;7.90;99.90
9383;DHT22;4731;49.708;10.816;2023-11-21T07:23:00;7.90;99.90
9383;DHT22;4731;49.708;10.816;2023-11-21T07:25:27;8.00;99.90
9383;DHT22;4731;49.708;10.816;2023-11-21T07:27:54;8.00;99.90
9383;DHT22;4731;49.708;10.816;2023-11-21T07:30:21;8.00;99.90
9383;DHT22;4731;49.708;10.816;2023-11-21T07:32:50;8.00;99.90
9383;DHT22;4731;49.708;10.816;2023-11-21T07:35:16;7.90;99.90
9383;DHT22;4731;49.708;10.816;2023-11-21T07:37:43;7.90;99.90
9383;DHT22;4731;49.708;10.816;2023-11-21T07:40:10;7.80;99.90
9383;DHT22;4731;49.708;10.816;2023-11-21T07:42:38;7.90;99.90
9383;DHT22;4731;49.708;10.816;2023-11-21T07:45:06;7.90;99.90
9383;DHT22;4731;49.708;10.816;2023-11-21T07:47:33;8.00;99.90
9383;DHT22;4731;49.708;10.816;2023-11-21T07:50:02;9.70;99.90
9383;DHT22;4731;49.708;10.816;2023-11-21T07:52:29;8.10;99.90
9383;DHT22;4731;49.708;10.816;2023-11-21T07:54:56;8.10;99.90
9383;DHT22;4731;49.708;10.816;2023-11-21T07:57:23;10.90;99.90
9383;DHT22;4731;49.708;10.816;2023-11-21T07:59:50;8.10;99.90
9383;DHT22;4731;49.708;10.816;2023-11-21T08:02:19;9.40;99.90
9383;DHT22;4731;49.708;10.816;2023-11-21T08:04:45;8.00;99.90
9383;DHT22;4731;49.708;10.816;2023-11-21T08:07:17;8.00;99.90
9383;DHT22;4731;49.708;10.816;2023-11-21T08:09:44;8.10;99.90
9383;DHT22;4731;49.708;10.816;2023-11-21T08:12:12;8.10;99.90
9383;DHT22;4731;49.708;10.816;2023-11-21T08:14:40;8.20;99.90
9383;DHT22;4731;49.708;10.816;2023-11-21T08:17:07;8.30;99.90
9383;DHT22;4731;49.708;10.816;2023-11-21T08:19:36;8.50;99.90
9383;DHT22;4731;49.708;10.816;2023-11-21T08:22:03;8.50;99.90
9383;DHT22;4731;49.708;10.816;2023-11-21T08:24:35;8.60;99.90
9383;DHT22;4731;49.708;10.816;2023-11-21T08:27:03;8.70;99.90
9383;DHT22;4731;49.708;10.816;2023-11-21T08:29:30;8.70;99.90
9383;DHT22;4731;49.708;10.816;2023-11-21T08:31:57;10.10;99.90
9383;DHT22;4731;49.708;10.816;2023-11-21T08:34:25;11.00;99.90
9383;DHT22;4731;49.708;10.816;2023-11-21T08:36:52;8.90;99.90
9383;DHT22;4731;49.708;10.816;2023-11-21T08:39:18;8.90;99.90
9383;DHT22;4731;49.708;10.816;2023-11-21T08:41:46;8.90;99.90
9383;DHT22;4731;49.708;10.816;2023-11-21T08:44:13;9.00;99.90
9383;DHT22;4731;49.708;10.816;2023-11-21T08:46:42;9.10;99.90
9383;DHT22;4731;49.708;10.816;2023-11-21T08:49:10;9.00;99.90
9383;DHT22;4731;49.708;10.816;2023-11-21T08:51:38;9.10;99.90
9383;DHT22;4731;49.708;10.816;2023-11-21T08:54:05;9.20;99.90
9383;DHT22;4731;49.708;10.816;2023-11-21T08:56:33;9.30;99.90
9383;DHT22;4731;49.708;10.816;2023-11-21T08:59:01;9.40;99.90
9383;DHT22;4731;49.708;10.816;2023-11-21T09:01:28;9.50;99.90
9383;DHT22;4731;49.708;10.816;2023-11-21T09:03:56;9.40;99.90
9383;DHT22;4731;49.708;10.816;2023-11-21T09:06:23;9.50;99.90
9383;DHT22;4731;49.708;10.816;2023-11-21T09:08:50;11.20;99.90
9383;DHT22;4731;49.708;10.816;2023-11-21T09:11:17;9.60;99.90
9383;DHT22;4731;49.708;10.816;2023-11-21T09:13:44;9.50;99.90
9383;DHT22;4731;49.708;10.816;2023-11-21T09:16:13;9.40;99.90
9383;DHT22;4731;49.708;10.816;2023-11-21T09:18:40;10.40;99.90
9383;DHT22;4731;49.708;10.816;2023-11-21T09:21:07;9.60;99.90
9383;DHT22;4731;49.708;10.816;2023-11-21T09:23:35;10.00;99.90
9383;DHT22;4731;49.708;10.816;2023-11-21T09:26:01;9.50;99.90
9383;DHT22;4731;49.708;10.816;2023-11-21T09:28:28;9.60;99.90
9383;DHT22;4731;49.708;10.816;2023-11-21T09:30:55;9.70;99.90
9383;DHT22;4731;49.708;10.816;2023-11-21T09:33:23;9.80;99.90
9383;DHT22;4731;49.708;10.816;2023-11-21T09:35:51;11.70;99.90
9383;DHT22;4731;49.708;10.816;2023-11-21T09:38:18;10.40;99.90
9383;DHT22;4731;49.708;10.816;2023-11-21T09:40:45;9.90;99.90
9383;DHT22;4731;49.708;10.816;2023-11-21T09:43:16;10.00;99.90
9383;DHT22;4731;49.708;10.816;2023-11-21T09:45:45;10.00;99.90
9383;DHT22;4731;49.708;10.816;2023-11-21T09:48:13;10.10;99.90
9383;DHT22;4731;49.708;10.816;2023-11-21T09:50:42;10.10;99.90
9383;DHT22;4731;49.708;10.816;2023-11-21T09:53:13;10.20;99.90
9383;DHT22;4731;49.708;10.816;2023-11-21T09:55:43;10.40;99.90
9383;DHT22;4731;49.708;10.816;2023-11-21T09:58:11;10.50;99.90
9383;DHT22;4731;49.708;10.816;2023-11-21T10:00:40;10.60;99.90
9383;DHT22;4731;49.708;10.816;2023-11-21T10:03:08;10.60;99.90
9383;DHT22;4731;49.708;10.816;2023-11-21T10:05:35;10.50;99.90
9383;DHT22;4731;49.708;10.816;2023-11-21T10:08:06;10.50;99.90
9383;DHT22;4731;49.708;10.816;2023-11-21T10:10:34;10.40;99.90
9383;DHT22;4731;49.708;10.816;2023-11-21T10:13:02;10.40;99.90
9383;DHT22;4731;49.708;10.816;2023-11-21T10:15:33;10.40;99.90
9383;DHT22;4731;49.708;10.816;2023-11-21T10:18:02;10.50;99.90
9383;DHT22;4731;49.708;10.816;2023-11-21T10:20:30;10.50;99.90
9383;DHT22;4731;49.708;10.816;2023-11-21T10:22:59;10.60;99.90
9383;DHT22;4731;49.708;10.816;2023-11-21T10:25:28;11.40;99.90
9383;DHT22;4731;49.708;10.816;2023-11-21T10:27:58;10.70;99.90
9383;DHT22;4731;49.708;10.816;2023-11-21T10:30:29;12.90;99.90
9383;DHT22;4731;49.708;10.816;2023-11-21T10:32:59;10.80;99.90
9383;DHT22;4731;49.708;10.816;2023-11-21T10:35:38;10.80;99.90
9383;DHT22;4731;49.708;10.816;2023-11-21T10:38:05;10.90;99.90
9383;DHT22;4731;49.708;10.816;2023-11-21T10:40:37;10.90;99.90
9383;DHT22;4731;49.708;10.816;2023-11-21T10:43:06;10.90;99.90
9383;DHT22;4731;49.708;10.816;2023-11-21T10:45:34;11.10;99.90
9383;DHT22;4731;49.708;10.816;2023-11-21T10:48:05;11.00;99.90
9383;DHT22;4731;49.708;10.816;2023-11-21T10:50:32;10.90;99.90
9383;DHT22;4731;49.708;10.816;2023-11-21T10:53:01;10.90;99.90
9383;DHT22;4731;49.708;10.816;2023-11-21T10:55:29;10.90;99.90
9383;DHT22;4731;49.708;10.816;2023-11-21T10:57:59;10.90;99.90
9383;DHT22;4731;49.708;10.816;2023-11-21T11:00:28;10.80;99.90
9383;DHT22;4731;49.708;10.816;2023-11-21T11:02:55;10.70;99.90
9383;DHT22;4731;49.708;10.816;2023-11-21T11:05:25;10.50;99.90
9383;DHT22;4731;49.708;10.816;2023-11-21T11:07:58;10.40;99.90
9383;DHT22;4731;49.708;10.816;2023-11-21T11:10:28;10.30;99.90
9383;DHT22;4731;49.708;10.816;2023-11-21T11:12:56;10.40;99.90
9383;DHT22;4731;49.708;10.816;2023-11-21T11:15:25;10.40;99.90
9383;DHT22;4731;49.708;10.816;2023-11-21T11:17:52;10.60;99.90
9383;DHT22;4731;49.708;10.816;2023-11-21T11:20:23;10.80;99.90
9383;DHT22;4731;49.708;10.816;2023-11-21T11:22:57;10.90;99.90
9383;DHT22;4731;49.708;10.816;2023-11-21T11:25:38;11.10;99.90
9383;DHT22;4731;49.708;10.816;2023-11-21T11:28:14;11.10;99.90
9383;DHT22;4731;49.708;10.816;2023-11-21T11:30:50;10.90;99.90
9383;DHT22;4731;49.708;10.816;2023-11-21T11:33:25;11.00;99.90
9383;DHT22;4731;49.708;10.816;2023-11-21T11:36:02;10.80;99.90
9383;DHT22;4731;49.708;10.816;2023-11-21T11:38:34;13.10;99.90
9383;DHT22;4731;49.708;10.816;2023-11-21T11:41:02;11.00;99.90
9383;DHT22;4731;49.708;10.816;2023-11-21T11:43:30;10.90;99.90
9383;DHT22;4731;49.708;10.816;2023-11-21T11:46:02;10.80;99.90
9383;DHT22;4731;49.708;10.816;2023-11-21T11:48:30;10.80;99.90
9383;DHT22;4731;49.708;10.816;2023-11-21T11:51:02;10.80;99.90
9383;DHT22;4731;49.708;10.816;2023-11-21T11:53:35;10.70;99.90
9383;DHT22;4731;49.708;10.816;2023-11-21T11:56:25;10.80;99.90
9383;DHT22;4731;49.708;10.816;2023-11-21T11:58:53;10.80;99.90
9383;DHT22;4731;49.708;10.816;2023-11-21T12:01:22;10.80;99.90
9383;DHT22;4731;49.708;10.816;2023-11-21T12:04:24;10.90;99.90
9383;DHT22;4731;49.708;10.816;2023-11-21T12:06:57;10.70;99.90
9383;DHT22;4731;49.708;10.816;2023-11-21T12:09:26;10.80;99.90
9383;DHT22;4731;49.708;10.816;2023-11-21T12:11:53;11.00;99.90
9383;DHT22;4731;49.708;10.816;2023-11-21T12:14:22;10.80;99.90
9383;DHT22;4731;49.708;10.816;2023-11-21T12:16:51;10.90;99.90
9383;DHT22;4731;49.708;10.816;2023-11-21T12:19:18;11.00;99.90
9383;DHT22;4731;49.708;10.816;2023-11-21T12:21:46;11.20;99.90
9383;DHT22;4731;49.708;10.816;2023-11-21T12:24:14;11.50;99.90
9383;DHT22;4731;49.708;10.816;2023-11-21T12:26:42;11.50;99.90
9383;DHT22;4731;49.708;10.816;2023-11-21T12:29:09;11.70;99.90
9383;DHT22;4731;49.708;10.816;2023-11-21T12:31:36;14.60;99.90
9383;DHT22;4731;49.708;10.816;2023-11-21T12:34:04;18.60;99.90
9383;DHT22;4731;49.708;10.816;2023-11-21T12:36:35;22.10;99.90
9383;DHT22;4731;49.708;10.816;2023-11-21T12:39:05;24.90;99.90
9383;DHT22;4731;49.708;10.816;2023-11-21T12:41:34;27.30;99.90
9383;DHT22;4731;49.708;10.816;2023-11-21T12:44:02;28.50;99.90
9383;DHT22;4731;49.708;10.816;2023-11-21T12:46:33;28.80;99.90
9383;DHT22;4731;49.708;10.816;2023-11-21T12:49:00;28.20;99.30
9383;DHT22;4731;49.708;10.816;2023-11-21T12:51:28;25.90;99.90
9383;DHT22;4731;49.708;10.816;2023-11-21T12:53:55;23.60;99.90
9383;DHT22;4731;49.708;10.816;2023-11-21T12:56:24;23.40;99.90
9383;DHT22;4731;49.708;10.816;2023-11-21T12:58:53;25.50;99.90
9383;DHT22;4731;49.708;10.816;2023-11-21T13:01:25;27.10;99.90
9383;DHT22;4731;49.708;10.816;2023-11-21T13:03:53;28.00;99.90
9383;DHT22;4731;49.708;10.816;2023-11-21T13:06:20;29.00;98.80
9383;DHT22;4731;49.708;10.816;2023-11-21T13:08:54;28.60;94.20
9383;DHT22;4731;49.708;10.816;2023-11-21T13:11:22;25.90;97.80
9383;DHT22;4731;49.708;10.816;2023-11-21T13:13:51;23.10;99.90
9383;DHT22;4731;49.708;10.816;2023-11-21T13:16:19;21.70;99.90
9383;DHT22;4731;49.708;10.816;2023-11-21T13:18:46;20.10;99.90
9383;DHT22;4731;49.708;10.816;2023-11-21T13:21:13;17.90;99.90
9383;DHT22;4731;49.708;10.816;2023-11-21T13:23:41;16.90;99.90
9383;DHT22;4731;49.708;10.816;2023-11-21T13:26:10;15.90;99.90
9383;DHT22;4731;49.708;10.816;2023-11-21T13:28:37;16.20;99.90
9383;DHT22;4731;49.708;10.816;2023-11-21T13:31:07;16.30;99.90
9383;DHT22;4731;49.708;10.816;2023-11-21T13:33:46;15.70;99.90
9383;DHT22;4731;49.708;10.816;2023-11-21T13:36:17;15.70;99.90
9383;DHT22;4731;49.708;10.816;2023-11-21T13:38:49;18.00;99.90
9383;DHT22;4731;49.708;10.816;2023-11-21T13:41:17;17.30;99.90
9383;DHT22;4731;49.708;10.816;2023-11-21T13:43:44;14.50;99.90
9383;DHT22;4731;49.708;10.816;2023-11-21T13:46:16;14.50;99.90
9383;DHT22;4731;49.708;10.816;2023-11-21T13:48:47;14.90;99.90
9383;DHT22;4731;49.708;10.816;2023-11-21T13:51:16;12.20;99.90
9383;DHT22;4731;49.708;10.816;2023-11-21T13:53:46;12.20;99.90
9383;DHT22;4731;49.708;10.816;2023-11-21T13:56:16;12.00;99.90
9383;DHT22;4731;49.708;10.816;2023-11-21T13:58:47;11.80;99.90
9383;DHT22;4731;49.708;10.816;2023-11-21T14:01:17;11.80;99.90
9383;DHT22;4731;49.708;10.816;2023-11-21T14:04:07;11.60;99.90
9383;DHT22;4731;49.708;10.816;2023-11-21T14:06:45;11.40;99.90
9383;DHT22;4731;49.708;10.816;2023-11-21T14:09:14;11.30;99.90
9383;DHT22;4731;49.708;10.816;2023-11-21T14:11:50;12.00;99.90
9383;DHT22;4731;49.708;10.816;2023-11-21T14:14:19;11.10;99.90
9383;DHT22;4731;49.708;10.816;2023-11-21T14:16:46;11.00;99.90
9383;DHT22;4731;49.708;10.816;2023-11-21T14:19:13;13.80;99.90
9383;DHT22;4731;49.708;10.816;2023-11-21T14:21:42;11.00;99.90
9383;DHT22;4731;49.708;10.816;2023-11-21T14:24:10;12.30;99.90
9383;DHT22;4731;49.708;10.816;2023-11-21T14:26:42;11.00;99.90
9383;DHT22;4731;49.708;10.816;2023-11-21T14:29:10;10.90;99.90
9383;DHT22;4731;49.708;10.816;2023-11-21T14:31:40;10.90;99.90
9383;DHT22;4731;49.708;10.816;2023-11-21T14:34:06;10.90;99.90
9383;DHT22;4731;49.708;10.816;2023-11-21T14:36:33;10.70;99.90
9383;DHT22;4731;49.708;10.816;2023-11-21T14:39:01;13.00;99.90
9383;DHT22;4731;49.708;10.816;2023-11-21T14:41:29;13.20;99.90
9383;DHT22;4731;49.708;10.816;2023-11-21T14:43:56;10.60;99.90
9383;DHT22;4731;49.708;10.816;2023-11-21T14:46:26;10.40;99.90
9383;DHT22;4731;49.708;10.816;2023-11-21T14:48:53;10.40;99.90
9383;DHT22;4731;49.708;10.816;2023-11-21T14:51:28;10.70;99.90
9383;DHT22;4731;49.708;10.816;2023-11-21T14:53:58;10.30;99.90
9383;DHT22;4731;49.708;10.816;2023-11-21T14:56:31;10.60;99.90
9383;DHT22;4731;49.708;10.816;2023-11-21T14:59:00;11.40;99.90
9383;DHT22;4731;49.708;10.816;2023-11-21T15:01:31;13.00;99.90
9383;DHT22;4731;49.708;10.816;2023-11-21T15:04:10;12.30;99.90
9383;DHT22;4731;49.708;10.816;2023-11-21T15:06:46;11.40;99.90
9383;DHT22;4731;49.708;10.816;2023-11-21T15:09:13;11.10;99.90
9383;DHT22;4731;49.708;10.816;2023-11-21T15:12:04;10.90;99.90
9383;DHT22;4731;49.708;10.816;2023-11-21T15:14:41;10.60;99.90
9383;DHT22;4731;49.708;10.816;2023-11-21T15:17:08;10.40;99.90
9383;DHT22;4731;49.708;10.816;2023-11-21T15:19:35;11.80;99.90
9383;DHT22;4731;49.708;10.816;2023-11-21T15:22:04;12.20;99.90
9383;DHT22;4731;49.708;10.816;2023-11-21T15:24:32;12.10;99.90
9383;DHT22;4731;49.708;10.816;2023-11-21T15:26:59;9.70;99.90
9383;DHT22;4731;49.708;10.816;2023-11-21T15:29:26;10.70;99.90
9383;DHT22;4731;49.708;10.816;2023-11-21T15:31:52;11.50;99.90
9383;DHT22;4731;49.708;10.816;2023-11-21T15:34:23;9.40;99.90
9383;DHT22;4731;49.708;10.816;2023-11-21T15:36:51;9.40;99.90
9383;DHT22;4731;49.708;10.816;2023-11-21T15:39:20;12.00;99.90
9383;DHT22;4731;49.708;10.816;2023-11-21T15:41:47;9.50;99.90
9383;DHT22;4731;49.708;10.816;2023-11-21T15:44:14;9.20;99.90
9383;DHT22;4731;49.708;10.816;2023-11-21T15:46:41;9.00;99.90
9383;DHT22;4731;49.708;10.816;2023-11-21T15:49:08;9.10;99.90
9383;DHT22;4731;49.708;10.816;2023-11-21T15:51:39;8.10;99.90
9383;DHT22;4731;49.708;10.816;2023-11-21T15:54:08;8.90;99.90
9383;DHT22;4731;49.708;10.816;2023-11-21T15:56:34;8.90;99.90
9383;DHT22;4731;49.708;10.816;2023-11-21T15:59:02;8.90;99.90
9383;DHT22;4731;49.708;10.816;2023-11-21T16:01:30;8.80;99.90